Kezdőlap
METAR-TAF:

METAR-TAF

Repülőterek :

Atlantic, Iowa, Amerikai Egyesült Államok

földrajzi szélesség: 41-24N, földrajzi hosszúság: 095-03W, magasság: 360 m

Jelenlegi meteorológiai megfigyelések

A jelentés 5 perccel ezelõtt készült, 16:55 UTC
Dél-délkeleti szél 8 kt
Hőmérséklet 30°C
Páratartalom 66%
Légköri nyomás 1016 hPa
Látótávolság: 16.1 km
Szórványos felhőzet 3100 lábon
Szórványos felhőzet 3700 lábon

METAR: KAIO 131655Z AUTO 15008KT 10SM SCT031 SCT037 30/23 A3001 RMK AO2

Idő: 12:00 (17:00 UTC)


TAF: hiányzik

Meteorológiai megfigyelések és előrejelzések több, mint 4000 repülőtéren (METAR és TAF jelentéseket).

A térképen piros és sárga pontok jelzik az elérhető meteorológiai állomásokat.

Mozgassa az egeret a pont fölött, hogy megjelenjen az állomás neve.

Azután kattintson az időjárási megfigyelések és előrejelzések megtekintéséhez.

A térkép megváltoztatása: kattintson a fekete keresztel jelölt zöld gombra ráközelítéshez, a vonallal jelölt zöld gombra távolításhoz, vagy a zöld nyilakra a szomszédos térképek eléréséhez.


METAR-TAF: